sensor_id;sensor_type;location;lat;lon;timestamp;temperature;humidity
9393;DHT22;4736;52.508;13.422;2023-05-29T00:01:03;14.40;57.50
9393;DHT22;4736;52.508;13.422;2023-05-29T00:04:06;14.30;57.60
9393;DHT22;4736;52.508;13.422;2023-05-29T00:07:10;14.30;58.00
9393;DHT22;4736;52.508;13.422;2023-05-29T00:10:14;14.20;57.90
9393;DHT22;4736;52.508;13.422;2023-05-29T00:13:19;14.20;57.70
9393;DHT22;4736;52.508;13.422;2023-05-29T00:16:23;14.20;57.90
9393;DHT22;4736;52.508;13.422;2023-05-29T00:19:27;14.10;57.60
9393;DHT22;4736;52.508;13.422;2023-05-29T00:22:30;14.10;57.60
9393;DHT22;4736;52.508;13.422;2023-05-29T00:25:34;14.10;57.70
9393;DHT22;4736;52.508;13.422;2023-05-29T00:28:39;14.10;57.60
9393;DHT22;4736;52.508;13.422;2023-05-29T00:31:42;14.10;57.80
9393;DHT22;4736;52.508;13.422;2023-05-29T00:34:46;14.00;57.70
9393;DHT22;4736;52.508;13.422;2023-05-29T00:37:49;14.00;57.70
9393;DHT22;4736;52.508;13.422;2023-05-29T00:40:52;14.00;57.90
9393;DHT22;4736;52.508;13.422;2023-05-29T00:43:56;13.90;58.20
9393;DHT22;4736;52.508;13.422;2023-05-29T00:47:02;13.90;58.30
9393;DHT22;4736;52.508;13.422;2023-05-29T00:50:06;13.80;58.50
9393;DHT22;4736;52.508;13.422;2023-05-29T00:53:11;13.70;58.60
9393;DHT22;4736;52.508;13.422;2023-05-29T00:56:14;13.70;58.60
9393;DHT22;4736;52.508;13.422;2023-05-29T00:59:19;13.60;58.70
9393;DHT22;4736;52.508;13.422;2023-05-29T01:02:25;13.60;58.70
9393;DHT22;4736;52.508;13.422;2023-05-29T01:05:33;13.50;58.90
9393;DHT22;4736;52.508;13.422;2023-05-29T01:08:36;13.50;59.00
9393;DHT22;4736;52.508;13.422;2023-05-29T01:11:47;13.50;59.00
9393;DHT22;4736;52.508;13.422;2023-05-29T01:15:13;13.50;59.00
9393;DHT22;4736;52.508;13.422;2023-05-29T01:18:27;13.40;59.30
9393;DHT22;4736;52.508;13.422;2023-05-29T01:25:11;13.30;59.20
9393;DHT22;4736;52.508;13.422;2023-05-29T01:28:21;13.30;59.30
9393;DHT22;4736;52.508;13.422;2023-05-29T01:31:26;13.20;59.50
9393;DHT22;4736;52.508;13.422;2023-05-29T01:34:30;13.10;59.50
9393;DHT22;4736;52.508;13.422;2023-05-29T01:37:34;13.10;59.60
9393;DHT22;4736;52.508;13.422;2023-05-29T01:40:37;13.10;59.80
9393;DHT22;4736;52.508;13.422;2023-05-29T01:43:43;13.10;59.70
9393;DHT22;4736;52.508;13.422;2023-05-29T01:46:47;13.10;59.80
9393;DHT22;4736;52.508;13.422;2023-05-29T01:49:51;13.10;59.90
9393;DHT22;4736;52.508;13.422;2023-05-29T01:52:55;13.00;60.00
9393;DHT22;4736;52.508;13.422;2023-05-29T01:55:58;13.00;60.10
9393;DHT22;4736;52.508;13.422;2023-05-29T01:59:06;13.00;60.30
9393;DHT22;4736;52.508;13.422;2023-05-29T02:02:09;12.90;60.40
9393;DHT22;4736;52.508;13.422;2023-05-29T02:05:13;12.90;60.50
9393;DHT22;4736;52.508;13.422;2023-05-29T02:08:16;12.90;60.40
9393;DHT22;4736;52.508;13.422;2023-05-29T02:11:20;12.90;60.50
9393;DHT22;4736;52.508;13.422;2023-05-29T02:14:25;12.80;60.70
9393;DHT22;4736;52.508;13.422;2023-05-29T02:17:28;12.80;60.90
9393;DHT22;4736;52.508;13.422;2023-05-29T02:20:34;12.80;61.00
9393;DHT22;4736;52.508;13.422;2023-05-29T02:23:37;12.80;61.30
9393;DHT22;4736;52.508;13.422;2023-05-29T02:26:41;12.70;61.20
9393;DHT22;4736;52.508;13.422;2023-05-29T02:29:46;12.70;61.20
9393;DHT22;4736;52.508;13.422;2023-05-29T02:32:49;12.60;61.90
9393;DHT22;4736;52.508;13.422;2023-05-29T02:35:52;12.50;61.90
9393;DHT22;4736;52.508;13.422;2023-05-29T02:38:56;12.50;61.90
9393;DHT22;4736;52.508;13.422;2023-05-29T02:41:59;12.50;61.90
9393;DHT22;4736;52.508;13.422;2023-05-29T02:45:04;12.50;62.00
9393;DHT22;4736;52.508;13.422;2023-05-29T02:48:08;12.50;62.50
9393;DHT22;4736;52.508;13.422;2023-05-29T02:51:11;12.50;62.50
9393;DHT22;4736;52.508;13.422;2023-05-29T02:54:14;12.40;62.90
9393;DHT22;4736;52.508;13.422;2023-05-29T02:57:18;12.30;62.90
9393;DHT22;4736;52.508;13.422;2023-05-29T03:00:23;12.30;62.80
9393;DHT22;4736;52.508;13.422;2023-05-29T03:03:27;12.30;63.10
9393;DHT22;4736;52.508;13.422;2023-05-29T03:06:32;12.20;63.10
9393;DHT22;4736;52.508;13.422;2023-05-29T03:09:35;12.20;63.20
9393;DHT22;4736;52.508;13.422;2023-05-29T03:12:38;12.20;63.30
9393;DHT22;4736;52.508;13.422;2023-05-29T03:15:44;12.20;63.30
9393;DHT22;4736;52.508;13.422;2023-05-29T03:18:47;12.10;63.50
9393;DHT22;4736;52.508;13.422;2023-05-29T03:21:51;12.10;63.70
9393;DHT22;4736;52.508;13.422;2023-05-29T03:24:54;12.10;63.70
9393;DHT22;4736;52.508;13.422;2023-05-29T03:27:57;12.10;63.90
9393;DHT22;4736;52.508;13.422;2023-05-29T03:31:02;12.10;63.90
9393;DHT22;4736;52.508;13.422;2023-05-29T03:34:05;12.10;63.90
9393;DHT22;4736;52.508;13.422;2023-05-29T03:37:08;12.10;63.90
9393;DHT22;4736;52.508;13.422;2023-05-29T03:40:12;12.10;63.80
9393;DHT22;4736;52.508;13.422;2023-05-29T03:43:15;12.10;63.70
9393;DHT22;4736;52.508;13.422;2023-05-29T03:46:20;12.10;63.80
9393;DHT22;4736;52.508;13.422;2023-05-29T03:49:23;12.10;63.80
9393;DHT22;4736;52.508;13.422;2023-05-29T03:52:26;12.10;64.00
9393;DHT22;4736;52.508;13.422;2023-05-29T03:55:29;12.10;63.70
9393;DHT22;4736;52.508;13.422;2023-05-29T03:58:32;12.10;63.60
9393;DHT22;4736;52.508;13.422;2023-05-29T04:01:37;12.20;63.50
9393;DHT22;4736;52.508;13.422;2023-05-29T04:04:40;12.30;63.30
9393;DHT22;4736;52.508;13.422;2023-05-29T04:07:44;12.40;63.20
9393;DHT22;4736;52.508;13.422;2023-05-29T04:10:50;12.50;62.90
9393;DHT22;4736;52.508;13.422;2023-05-29T04:13:55;12.50;62.80
9393;DHT22;4736;52.508;13.422;2023-05-29T04:17:01;12.50;62.80
9393;DHT22;4736;52.508;13.422;2023-05-29T04:20:06;12.50;62.80
9393;DHT22;4736;52.508;13.422;2023-05-29T04:23:10;12.50;62.60
9393;DHT22;4736;52.508;13.422;2023-05-29T04:26:14;12.70;62.20
9393;DHT22;4736;52.508;13.422;2023-05-29T04:29:17;12.80;62.00
9393;DHT22;4736;52.508;13.422;2023-05-29T04:32:22;13.00;61.90
9393;DHT22;4736;52.508;13.422;2023-05-29T04:35:25;13.10;61.50
9393;DHT22;4736;52.508;13.422;2023-05-29T04:38:30;13.20;61.20
9393;DHT22;4736;52.508;13.422;2023-05-29T04:41:33;13.30;61.00
9393;DHT22;4736;52.508;13.422;2023-05-29T04:44:37;13.40;60.80
9393;DHT22;4736;52.508;13.422;2023-05-29T04:47:41;13.50;60.50
9393;DHT22;4736;52.508;13.422;2023-05-29T04:50:46;13.60;60.30
9393;DHT22;4736;52.508;13.422;2023-05-29T04:53:50;13.80;60.00
9393;DHT22;4736;52.508;13.422;2023-05-29T04:56:54;13.90;59.70
9393;DHT22;4736;52.508;13.422;2023-05-29T04:59:57;14.00;59.30
9393;DHT22;4736;52.508;13.422;2023-05-29T05:03:01;14.10;58.90
9393;DHT22;4736;52.508;13.422;2023-05-29T05:06:05;14.10;58.80
9393;DHT22;4736;52.508;13.422;2023-05-29T05:09:09;14.20;58.70
9393;DHT22;4736;52.508;13.422;2023-05-29T05:12:12;14.40;58.60
9393;DHT22;4736;52.508;13.422;2023-05-29T05:15:15;14.60;58.00
9393;DHT22;4736;52.508;13.422;2023-05-29T05:18:20;14.90;57.50
9393;DHT22;4736;52.508;13.422;2023-05-29T05:21:23;15.30;56.50
9393;DHT22;4736;52.508;13.422;2023-05-29T05:24:26;15.50;56.10
9393;DHT22;4736;52.508;13.422;2023-05-29T05:27:29;15.70;55.90
9393;DHT22;4736;52.508;13.422;2023-05-29T05:30:33;16.00;55.80
9393;DHT22;4736;52.508;13.422;2023-05-29T05:33:37;16.40;55.20
9393;DHT22;4736;52.508;13.422;2023-05-29T05:36:40;16.50;54.70
9393;DHT22;4736;52.508;13.422;2023-05-29T05:39:44;16.70;54.60
9393;DHT22;4736;52.508;13.422;2023-05-29T05:42:47;17.00;54.20
9393;DHT22;4736;52.508;13.422;2023-05-29T05:45:50;17.30;53.60
9393;DHT22;4736;52.508;13.422;2023-05-29T05:48:55;17.60;53.30
9393;DHT22;4736;52.508;13.422;2023-05-29T05:51:59;18.00;52.60
9393;DHT22;4736;52.508;13.422;2023-05-29T05:55:02;18.10;51.50
9393;DHT22;4736;52.508;13.422;2023-05-29T05:58:06;17.90;51.30
9393;DHT22;4736;52.508;13.422;2023-05-29T06:01:09;18.00;51.50
9393;DHT22;4736;52.508;13.422;2023-05-29T06:04:13;17.90;51.20
9393;DHT22;4736;52.508;13.422;2023-05-29T06:07:17;18.00;50.90
9393;DHT22;4736;52.508;13.422;2023-05-29T06:10:21;18.20;51.30
9393;DHT22;4736;52.508;13.422;2023-05-29T06:13:24;18.40;51.20
9393;DHT22;4736;52.508;13.422;2023-05-29T06:16:27;18.70;50.20
9393;DHT22;4736;52.508;13.422;2023-05-29T06:19:32;19.10;50.60
9393;DHT22;4736;52.508;13.422;2023-05-29T06:22:35;19.40;50.10
9393;DHT22;4736;52.508;13.422;2023-05-29T06:25:39;19.50;49.10
9393;DHT22;4736;52.508;13.422;2023-05-29T06:28:42;19.50;48.40
9393;DHT22;4736;52.508;13.422;2023-05-29T06:31:45;19.50;48.80
9393;DHT22;4736;52.508;13.422;2023-05-29T06:34:50;19.70;48.40
9393;DHT22;4736;52.508;13.422;2023-05-29T06:37:53;19.70;48.30
9393;DHT22;4736;52.508;13.422;2023-05-29T06:40:56;19.70;48.90
9393;DHT22;4736;52.508;13.422;2023-05-29T06:44:01;19.70;48.40
9393;DHT22;4736;52.508;13.422;2023-05-29T06:47:05;19.80;48.10
9393;DHT22;4736;52.508;13.422;2023-05-29T06:50:11;20.00;48.60
9393;DHT22;4736;52.508;13.422;2023-05-29T06:53:14;20.50;47.30
9393;DHT22;4736;52.508;13.422;2023-05-29T06:56:17;20.60;47.00
9393;DHT22;4736;52.508;13.422;2023-05-29T06:59:20;20.90;46.30
9393;DHT22;4736;52.508;13.422;2023-05-29T07:02:23;20.60;46.10
9393;DHT22;4736;52.508;13.422;2023-05-29T07:05:28;20.50;46.40
9393;DHT22;4736;52.508;13.422;2023-05-29T07:08:31;20.60;46.60
9393;DHT22;4736;52.508;13.422;2023-05-29T07:11:34;20.70;46.10
9393;DHT22;4736;52.508;13.422;2023-05-29T07:14:37;20.70;46.30
9393;DHT22;4736;52.508;13.422;2023-05-29T07:17:40;20.90;46.70
9393;DHT22;4736;52.508;13.422;2023-05-29T07:20:45;21.00;46.50
9393;DHT22;4736;52.508;13.422;2023-05-29T07:23:49;20.80;47.20
9393;DHT22;4736;52.508;13.422;2023-05-29T07:26:52;20.70;47.10
9393;DHT22;4736;52.508;13.422;2023-05-29T07:29:57;20.80;47.30
9393;DHT22;4736;52.508;13.422;2023-05-29T07:33:00;21.00;46.60
9393;DHT22;4736;52.508;13.422;2023-05-29T07:36:05;21.00;45.90
9393;DHT22;4736;52.508;13.422;2023-05-29T07:39:09;20.90;46.30
9393;DHT22;4736;52.508;13.422;2023-05-29T07:42:12;20.90;46.60
9393;DHT22;4736;52.508;13.422;2023-05-29T07:45:15;21.00;46.70
9393;DHT22;4736;52.508;13.422;2023-05-29T07:48:18;21.00;45.10
9393;DHT22;4736;52.508;13.422;2023-05-29T07:51:25;20.80;45.80
9393;DHT22;4736;52.508;13.422;2023-05-29T07:54:28;20.80;45.60
9393;DHT22;4736;52.508;13.422;2023-05-29T07:57:31;21.10;46.30
9393;DHT22;4736;52.508;13.422;2023-05-29T08:00:35;20.90;45.30
9393;DHT22;4736;52.508;13.422;2023-05-29T08:03:38;20.80;46.40
9393;DHT22;4736;52.508;13.422;2023-05-29T08:06:42;20.90;45.30
9393;DHT22;4736;52.508;13.422;2023-05-29T08:09:45;21.00;45.90
9393;DHT22;4736;52.508;13.422;2023-05-29T08:12:48;20.90;45.70
9393;DHT22;4736;52.508;13.422;2023-05-29T08:15:52;20.80;45.80
9393;DHT22;4736;52.508;13.422;2023-05-29T08:18:55;21.00;45.60
9393;DHT22;4736;52.508;13.422;2023-05-29T08:22:00;21.00;45.00
9393;DHT22;4736;52.508;13.422;2023-05-29T08:25:03;20.90;45.20
9393;DHT22;4736;52.508;13.422;2023-05-29T08:28:07;20.80;45.40
9393;DHT22;4736;52.508;13.422;2023-05-29T08:31:10;20.60;46.10
9393;DHT22;4736;52.508;13.422;2023-05-29T08:34:14;20.50;46.10
9393;DHT22;4736;52.508;13.422;2023-05-29T08:37:19;20.60;46.20
9393;DHT22;4736;52.508;13.422;2023-05-29T08:40:22;20.50;46.20
9393;DHT22;4736;52.508;13.422;2023-05-29T08:43:30;20.50;45.70
9393;DHT22;4736;52.508;13.422;2023-05-29T08:46:34;20.70;45.70
9393;DHT22;4736;52.508;13.422;2023-05-29T08:49:41;20.90;45.20
9393;DHT22;4736;52.508;13.422;2023-05-29T08:52:47;21.10;45.00
9393;DHT22;4736;52.508;13.422;2023-05-29T08:55:51;21.30;44.70
9393;DHT22;4736;52.508;13.422;2023-05-29T08:58:54;21.50;44.90
9393;DHT22;4736;52.508;13.422;2023-05-29T09:01:58;21.60;44.50
9393;DHT22;4736;52.508;13.422;2023-05-29T09:05:01;21.50;44.80
9393;DHT22;4736;52.508;13.422;2023-05-29T09:08:06;21.30;45.10
9393;DHT22;4736;52.508;13.422;2023-05-29T09:11:10;21.20;45.00
9393;DHT22;4736;52.508;13.422;2023-05-29T09:14:31;21.30;45.60
9393;DHT22;4736;52.508;13.422;2023-05-29T09:17:35;21.40;46.10
9393;DHT22;4736;52.508;13.422;2023-05-29T09:20:38;21.50;45.30
9393;DHT22;4736;52.508;13.422;2023-05-29T09:23:43;21.50;45.20
9393;DHT22;4736;52.508;13.422;2023-05-29T09:26:49;21.50;45.80
9393;DHT22;4736;52.508;13.422;2023-05-29T09:29:52;21.70;45.60
9393;DHT22;4736;52.508;13.422;2023-05-29T09:32:55;21.90;45.60
9393;DHT22;4736;52.508;13.422;2023-05-29T09:35:59;22.20;45.60
9393;DHT22;4736;52.508;13.422;2023-05-29T09:39:04;22.50;44.60
9393;DHT22;4736;52.508;13.422;2023-05-29T09:42:18;22.30;45.00
9393;DHT22;4736;52.508;13.422;2023-05-29T09:45:22;22.10;45.10
9393;DHT22;4736;52.508;13.422;2023-05-29T09:48:26;22.30;44.60
9393;DHT22;4736;52.508;13.422;2023-05-29T09:51:33;22.30;44.30
9393;DHT22;4736;52.508;13.422;2023-05-29T09:54:38;22.30;44.20
9393;DHT22;4736;52.508;13.422;2023-05-29T09:57:41;22.30;43.90
9393;DHT22;4736;52.508;13.422;2023-05-29T10:00:46;22.20;44.00
9393;DHT22;4736;52.508;13.422;2023-05-29T10:03:50;22.00;44.10
9393;DHT22;4736;52.508;13.422;2023-05-29T10:06:56;21.90;44.60
9393;DHT22;4736;52.508;13.422;2023-05-29T10:10:03;21.90;45.10
9393;DHT22;4736;52.508;13.422;2023-05-29T10:13:10;21.90;44.30
9393;DHT22;4736;52.508;13.422;2023-05-29T10:16:14;21.90;44.60
9393;DHT22;4736;52.508;13.422;2023-05-29T10:19:21;22.00;44.50
9393;DHT22;4736;52.508;13.422;2023-05-29T10:22:28;21.90;44.60
9393;DHT22;4736;52.508;13.422;2023-05-29T10:25:33;21.70;44.70
9393;DHT22;4736;52.508;13.422;2023-05-29T10:28:43;21.80;45.00
9393;DHT22;4736;52.508;13.422;2023-05-29T10:32:00;22.00;45.10
9393;DHT22;4736;52.508;13.422;2023-05-29T10:35:10;22.00;44.60
9393;DHT22;4736;52.508;13.422;2023-05-29T10:38:16;21.90;44.10
9393;DHT22;4736;52.508;13.422;2023-05-29T10:41:31;21.70;44.80
9393;DHT22;4736;52.508;13.422;2023-05-29T10:44:41;21.70;43.90
9393;DHT22;4736;52.508;13.422;2023-05-29T10:47:44;22.10;43.60
9393;DHT22;4736;52.508;13.422;2023-05-29T10:50:48;22.30;43.80
9393;DHT22;4736;52.508;13.422;2023-05-29T10:53:52;22.60;43.30
9393;DHT22;4736;52.508;13.422;2023-05-29T10:56:58;22.80;43.10
9393;DHT22;4736;52.508;13.422;2023-05-29T11:00:05;22.70;42.80
9393;DHT22;4736;52.508;13.422;2023-05-29T11:03:15;22.50;43.00
9393;DHT22;4736;52.508;13.422;2023-05-29T11:06:19;22.30;42.80
9393;DHT22;4736;52.508;13.422;2023-05-29T11:09:31;22.20;43.30
9393;DHT22;4736;52.508;13.422;2023-05-29T11:12:55;22.30;43.90
9393;DHT22;4736;52.508;13.422;2023-05-29T11:16:13;22.70;43.10
9393;DHT22;4736;52.508;13.422;2023-05-29T11:19:16;22.80;42.70
9393;DHT22;4736;52.508;13.422;2023-05-29T11:22:25;23.00;42.50
9393;DHT22;4736;52.508;13.422;2023-05-29T11:25:34;23.30;42.30
9393;DHT22;4736;52.508;13.422;2023-05-29T11:28:39;23.40;41.80
9393;DHT22;4736;52.508;13.422;2023-05-29T11:31:43;23.20;41.80
9393;DHT22;4736;52.508;13.422;2023-05-29T11:34:47;23.20;42.20
9393;DHT22;4736;52.508;13.422;2023-05-29T11:37:50;23.10;42.80
9393;DHT22;4736;52.508;13.422;2023-05-29T11:40:54;22.90;42.80
9393;DHT22;4736;52.508;13.422;2023-05-29T11:44:00;22.60;42.50
9393;DHT22;4736;52.508;13.422;2023-05-29T11:47:06;22.80;43.00
9393;DHT22;4736;52.508;13.422;2023-05-29T11:50:18;23.10;42.60
9393;DHT22;4736;52.508;13.422;2023-05-29T11:53:21;23.50;42.20
9393;DHT22;4736;52.508;13.422;2023-05-29T11:56:25;23.50;42.00
9393;DHT22;4736;52.508;13.422;2023-05-29T11:59:30;23.10;42.20
9393;DHT22;4736;52.508;13.422;2023-05-29T12:02:33;23.00;42.50
9393;DHT22;4736;52.508;13.422;2023-05-29T12:05:45;23.10;42.10
9393;DHT22;4736;52.508;13.422;2023-05-29T12:08:51;23.10;42.50
9393;DHT22;4736;52.508;13.422;2023-05-29T12:12:00;23.00;42.00
9393;DHT22;4736;52.508;13.422;2023-05-29T12:15:06;23.30;41.30
9393;DHT22;4736;52.508;13.422;2023-05-29T12:18:10;23.40;41.30
9393;DHT22;4736;52.508;13.422;2023-05-29T12:21:13;23.40;42.30
9393;DHT22;4736;52.508;13.422;2023-05-29T12:24:18;23.60;41.40
9393;DHT22;4736;52.508;13.422;2023-05-29T12:27:27;23.70;41.40
9393;DHT22;4736;52.508;13.422;2023-05-29T12:30:37;23.80;41.50
9393;DHT22;4736;52.508;13.422;2023-05-29T12:33:43;23.60;41.60
9393;DHT22;4736;52.508;13.422;2023-05-29T12:36:46;23.40;42.20
9393;DHT22;4736;52.508;13.422;2023-05-29T12:40:10;23.40;42.10
9393;DHT22;4736;52.508;13.422;2023-05-29T12:43:14;22.90;42.00
9393;DHT22;4736;52.508;13.422;2023-05-29T12:46:20;22.80;42.10
9393;DHT22;4736;52.508;13.422;2023-05-29T12:49:23;22.70;42.20
9393;DHT22;4736;52.508;13.422;2023-05-29T12:52:28;22.70;42.00
9393;DHT22;4736;52.508;13.422;2023-05-29T12:55:33;22.80;41.70
9393;DHT22;4736;52.508;13.422;2023-05-29T12:58:38;22.60;41.60
9393;DHT22;4736;52.508;13.422;2023-05-29T13:01:43;22.70;42.00
9393;DHT22;4736;52.508;13.422;2023-05-29T13:04:47;22.90;41.70
9393;DHT22;4736;52.508;13.422;2023-05-29T13:07:51;23.00;41.40
9393;DHT22;4736;52.508;13.422;2023-05-29T13:10:54;22.90;41.50
9393;DHT22;4736;52.508;13.422;2023-05-29T13:13:57;22.90;41.60
9393;DHT22;4736;52.508;13.422;2023-05-29T13:17:02;23.10;42.00
9393;DHT22;4736;52.508;13.422;2023-05-29T13:20:07;23.20;41.80
9393;DHT22;4736;52.508;13.422;2023-05-29T13:23:11;23.10;41.40
9393;DHT22;4736;52.508;13.422;2023-05-29T13:26:14;23.10;41.40
9393;DHT22;4736;52.508;13.422;2023-05-29T13:29:17;23.10;41.30
9393;DHT22;4736;52.508;13.422;2023-05-29T13:32:23;23.00;41.20
9393;DHT22;4736;52.508;13.422;2023-05-29T13:35:27;23.10;41.10
9393;DHT22;4736;52.508;13.422;2023-05-29T13:38:30;23.20;41.10
9393;DHT22;4736;52.508;13.422;2023-05-29T13:41:33;23.20;41.40
9393;DHT22;4736;52.508;13.422;2023-05-29T13:44:37;23.20;40.60
9393;DHT22;4736;52.508;13.422;2023-05-29T13:47:42;23.00;41.20
9393;DHT22;4736;52.508;13.422;2023-05-29T13:50:45;22.70;41.80
9393;DHT22;4736;52.508;13.422;2023-05-29T13:53:48;22.90;42.00
9393;DHT22;4736;52.508;13.422;2023-05-29T13:56:51;23.10;41.90
9393;DHT22;4736;52.508;13.422;2023-05-29T13:59:54;23.20;41.60
9393;DHT22;4736;52.508;13.422;2023-05-29T14:02:59;23.20;40.80
9393;DHT22;4736;52.508;13.422;2023-05-29T14:06:02;23.00;41.00
9393;DHT22;4736;52.508;13.422;2023-05-29T14:09:06;23.20;41.30
9393;DHT22;4736;52.508;13.422;2023-05-29T14:12:11;23.00;41.10
9393;DHT22;4736;52.508;13.422;2023-05-29T14:15:14;22.70;41.60
9393;DHT22;4736;52.508;13.422;2023-05-29T14:18:19;22.60;41.50
9393;DHT22;4736;52.508;13.422;2023-05-29T14:21:24;22.60;41.80
9393;DHT22;4736;52.508;13.422;2023-05-29T14:24:27;22.60;41.40
9393;DHT22;4736;52.508;13.422;2023-05-29T14:27:31;22.80;41.10
9393;DHT22;4736;52.508;13.422;2023-05-29T14:30:34;22.90;41.10
9393;DHT22;4736;52.508;13.422;2023-05-29T14:33:39;23.20;41.00
9393;DHT22;4736;52.508;13.422;2023-05-29T14:36:42;23.10;40.80
9393;DHT22;4736;52.508;13.422;2023-05-29T14:39:46;22.90;41.30
9393;DHT22;4736;52.508;13.422;2023-05-29T14:42:50;22.70;42.10
9393;DHT22;4736;52.508;13.422;2023-05-29T14:45:53;22.50;42.20
9393;DHT22;4736;52.508;13.422;2023-05-29T14:48:58;22.20;42.60
9393;DHT22;4736;52.508;13.422;2023-05-29T14:52:03;22.30;42.40
9393;DHT22;4736;52.508;13.422;2023-05-29T14:55:06;22.50;42.20
9393;DHT22;4736;52.508;13.422;2023-05-29T14:58:09;22.50;42.10
9393;DHT22;4736;52.508;13.422;2023-05-29T15:01:14;22.50;41.70
9393;DHT22;4736;52.508;13.422;2023-05-29T15:04:19;22.30;41.80
9393;DHT22;4736;52.508;13.422;2023-05-29T15:07:22;22.20;41.90
9393;DHT22;4736;52.508;13.422;2023-05-29T15:10:25;22.10;41.80
9393;DHT22;4736;52.508;13.422;2023-05-29T15:13:29;22.10;41.60
9393;DHT22;4736;52.508;13.422;2023-05-29T15:16:32;22.20;41.20
9393;DHT22;4736;52.508;13.422;2023-05-29T15:19:37;22.50;41.50
9393;DHT22;4736;52.508;13.422;2023-05-29T15:22:40;22.50;41.40
9393;DHT22;4736;52.508;13.422;2023-05-29T15:25:43;22.50;41.50
9393;DHT22;4736;52.508;13.422;2023-05-29T15:28:46;22.60;41.20
9393;DHT22;4736;52.508;13.422;2023-05-29T15:31:49;22.70;41.00
9393;DHT22;4736;52.508;13.422;2023-05-29T15:34:53;22.60;41.10
9393;DHT22;4736;52.508;13.422;2023-05-29T15:37:57;22.60;41.60
9393;DHT22;4736;52.508;13.422;2023-05-29T15:41:00;22.50;41.80
9393;DHT22;4736;52.508;13.422;2023-05-29T15:44:03;22.30;42.20
9393;DHT22;4736;52.508;13.422;2023-05-29T15:47:06;22.20;42.40
9393;DHT22;4736;52.508;13.422;2023-05-29T15:50:11;22.30;42.20
9393;DHT22;4736;52.508;13.422;2023-05-29T15:53:14;22.20;41.90
9393;DHT22;4736;52.508;13.422;2023-05-29T15:56:19;22.30;41.60
9393;DHT22;4736;52.508;13.422;2023-05-29T15:59:26;22.40;41.90
9393;DHT22;4736;52.508;13.422;2023-05-29T16:02:31;22.40;41.60
9393;DHT22;4736;52.508;13.422;2023-05-29T16:05:36;22.30;41.50
9393;DHT22;4736;52.508;13.422;2023-05-29T16:08:39;22.10;41.80
9393;DHT22;4736;52.508;13.422;2023-05-29T16:11:45;21.90;42.30
9393;DHT22;4736;52.508;13.422;2023-05-29T16:14:48;21.70;42.20
9393;DHT22;4736;52.508;13.422;2023-05-29T16:17:51;21.60;42.50
9393;DHT22;4736;52.508;13.422;2023-05-29T16:20:57;21.70;42.40
9393;DHT22;4736;52.508;13.422;2023-05-29T16:24:01;21.70;42.60
9393;DHT22;4736;52.508;13.422;2023-05-29T16:27:04;21.70;42.30
9393;DHT22;4736;52.508;13.422;2023-05-29T16:30:09;21.70;42.40
9393;DHT22;4736;52.508;13.422;2023-05-29T16:33:14;21.70;42.70
9393;DHT22;4736;52.508;13.422;2023-05-29T16:36:18;21.90;42.50
9393;DHT22;4736;52.508;13.422;2023-05-29T16:39:22;21.90;42.80
9393;DHT22;4736;52.508;13.422;2023-05-29T16:42:30;21.90;42.90
9393;DHT22;4736;52.508;13.422;2023-05-29T16:45:33;21.80;42.50
9393;DHT22;4736;52.508;13.422;2023-05-29T16:48:36;21.70;42.70
9393;DHT22;4736;52.508;13.422;2023-05-29T16:51:42;21.70;42.70
9393;DHT22;4736;52.508;13.422;2023-05-29T16:54:45;21.60;42.70
9393;DHT22;4736;52.508;13.422;2023-05-29T16:57:49;21.40;42.80
9393;DHT22;4736;52.508;13.422;2023-05-29T17:00:52;21.30;43.00
9393;DHT22;4736;52.508;13.422;2023-05-29T17:03:55;21.30;42.80
9393;DHT22;4736;52.508;13.422;2023-05-29T17:07:00;21.30;42.80
9393;DHT22;4736;52.508;13.422;2023-05-29T17:10:03;21.40;42.80
9393;DHT22;4736;52.508;13.422;2023-05-29T17:13:06;21.30;42.40
9393;DHT22;4736;52.508;13.422;2023-05-29T17:16:10;21.20;42.30
9393;DHT22;4736;52.508;13.422;2023-05-29T17:19:13;21.10;41.90
9393;DHT22;4736;52.508;13.422;2023-05-29T17:22:18;21.00;41.10
9393;DHT22;4736;52.508;13.422;2023-05-29T17:25:21;21.00;41.30
9393;DHT22;4736;52.508;13.422;2023-05-29T17:28:24;21.00;41.40
9393;DHT22;4736;52.508;13.422;2023-05-29T17:31:27;21.00;40.90
9393;DHT22;4736;52.508;13.422;2023-05-29T17:34:30;20.90;40.70
9393;DHT22;4736;52.508;13.422;2023-05-29T17:37:35;20.80;41.00
9393;DHT22;4736;52.508;13.422;2023-05-29T17:40:38;20.60;40.90
9393;DHT22;4736;52.508;13.422;2023-05-29T17:43:41;20.50;41.20
9393;DHT22;4736;52.508;13.422;2023-05-29T17:46:44;20.40;41.40
9393;DHT22;4736;52.508;13.422;2023-05-29T17:49:47;20.30;40.80
9393;DHT22;4736;52.508;13.422;2023-05-29T17:52:53;20.30;40.70
9393;DHT22;4736;52.508;13.422;2023-05-29T17:55:56;20.10;40.50
9393;DHT22;4736;52.508;13.422;2023-05-29T17:59:03;20.00;40.20
9393;DHT22;4736;52.508;13.422;2023-05-29T18:02:06;20.00;39.90
9393;DHT22;4736;52.508;13.422;2023-05-29T18:05:09;19.80;40.00
9393;DHT22;4736;52.508;13.422;2023-05-29T18:08:13;19.70;39.90
9393;DHT22;4736;52.508;13.422;2023-05-29T18:11:17;19.70;40.20
9393;DHT22;4736;52.508;13.422;2023-05-29T18:14:25;19.70;40.30
9393;DHT22;4736;52.508;13.422;2023-05-29T18:17:28;19.70;40.40
9393;DHT22;4736;52.508;13.422;2023-05-29T18:20:31;19.50;40.90
9393;DHT22;4736;52.508;13.422;2023-05-29T18:23:36;19.50;41.00
9393;DHT22;4736;52.508;13.422;2023-05-29T18:26:40;19.40;41.20
9393;DHT22;4736;52.508;13.422;2023-05-29T18:29:45;19.20;42.00
9393;DHT22;4736;52.508;13.422;2023-05-29T18:32:49;19.10;42.20
9393;DHT22;4736;52.508;13.422;2023-05-29T18:35:52;18.90;42.90
9393;DHT22;4736;52.508;13.422;2023-05-29T18:38:57;18.90;43.10
9393;DHT22;4736;52.508;13.422;2023-05-29T18:42:00;18.80;43.50
9393;DHT22;4736;52.508;13.422;2023-05-29T18:45:06;18.70;43.40
9393;DHT22;4736;52.508;13.422;2023-05-29T18:48:09;18.60;43.60
9393;DHT22;4736;52.508;13.422;2023-05-29T18:51:12;18.50;43.80
9393;DHT22;4736;52.508;13.422;2023-05-29T18:54:17;18.40;43.80
9393;DHT22;4736;52.508;13.422;2023-05-29T18:57:20;18.30;43.30
9393;DHT22;4736;52.508;13.422;2023-05-29T19:00:23;18.20;43.20
9393;DHT22;4736;52.508;13.422;2023-05-29T19:03:27;18.10;42.90
9393;DHT22;4736;52.508;13.422;2023-05-29T19:06:30;18.00;42.80
9393;DHT22;4736;52.508;13.422;2023-05-29T19:09:35;18.00;42.70
9393;DHT22;4736;52.508;13.422;2023-05-29T19:12:38;17.80;42.90
9393;DHT22;4736;52.508;13.422;2023-05-29T19:15:41;17.70;42.80
9393;DHT22;4736;52.508;13.422;2023-05-29T19:18:45;17.60;43.10
9393;DHT22;4736;52.508;13.422;2023-05-29T19:21:48;17.50;43.20
9393;DHT22;4736;52.508;13.422;2023-05-29T19:24:53;17.50;43.30
9393;DHT22;4736;52.508;13.422;2023-05-29T19:27:56;17.40;43.30
9393;DHT22;4736;52.508;13.422;2023-05-29T19:30:59;17.30;43.60
9393;DHT22;4736;52.508;13.422;2023-05-29T19:34:03;17.20;44.00
9393;DHT22;4736;52.508;13.422;2023-05-29T19:37:08;17.20;43.90
9393;DHT22;4736;52.508;13.422;2023-05-29T19:40:13;17.00;44.20
9393;DHT22;4736;52.508;13.422;2023-05-29T19:43:16;17.00;44.30
9393;DHT22;4736;52.508;13.422;2023-05-29T19:46:19;17.00;44.50